Minneapolis-St Paul International/Wold-Chamberlain Airport
KMSP : now visible

Airfield :











YOU CAN JOIN US ON...

 
LOGIN :

Register | Disclaimer

   EN    FR    IT 

 









Legend :    VFR   Marginal VFR   IFR   Intensive IFR   Very Intensive IFR
Visi :
Ceiling :
>= 8 km
>= 3000ft
5 to 8 km
1000 to 3000 ft
1500m to 5 km
500 to 1000 ft
800 to 1500m
200 to 500 ft
< 800m
< 200 ft
Symbols :   Thunderstorms  Fog  Heavy snow  Heavy precipitations  Wind > 20 kt






- Airport Elevation : 841 ft
- IATA code : MSP


KMSP - Minneapolis-St Paul International/Wold-Chamberlain

CURRENT METAR :
  • 142153Z 20008KT 10SM SCT060 M01/M09 A3016 RMK AO2 SLP225 T10061089

EXPIRED METARs :
  • 142053Z 26009KT 10SM BKN060 M01/M09 A3020 RMK AO2 SLP238 T10061089 58013
  • 141953Z 23012KT 10SM FEW070 M02/M10 A3020 RMK AO2 SLP239 T10171100
  • 141853Z 26011KT 10SM FEW070 M02/M10 A3024 RMK AO2 SLP252 T10221100

TAF KMSP
Valid from the 14 at 20:00 until the 16 at 00:00 UTC


142015Z 1420/1524 22007KT P6SM BKN060
FM150500 26005KT P6SM BKN025
FM151500 VRB03KT P6SM BKN035



MET'MAP, your aeronautical weather chart ! - Copyright ORBIFLY December 2007 - Disclaimer

ORBIFLY MET'MAP TEAM :

Programming & Development : Alexandra Zaïnal
Concept & Development : Baudouin d'Aumeries
Co-Development & Prog : Marc-Olivier Méhu
Technical & hardware support : Manuel Goepfert

Contact : metmap@orbifly.com




SOURCES & CREDITS :

   NOAA       Earth
Advisory